sensor_id;sensor_type;location;lat;lon;timestamp;P1;durP1;ratioP1;P2;durP2;ratioP2
20792;SDS011;10556;-33.662;151.094;2023-05-07T00:00:05;7.10;;;2.80;;
20792;SDS011;10556;-33.662;151.094;2023-05-07T00:05:07;4.10;;;2.83;;
20792;SDS011;10556;-33.662;151.094;2023-05-07T00:10:10;5.63;;;2.60;;
20792;SDS011;10556;-33.662;151.094;2023-05-07T00:15:11;3.73;;;1.97;;
20792;SDS011;10556;-33.662;151.094;2023-05-07T00:20:13;14.27;;;8.97;;
20792;SDS011;10556;-33.662;151.094;2023-05-07T00:25:16;14.70;;;7.67;;
20792;SDS011;10556;-33.662;151.094;2023-05-07T00:30:17;6.97;;;3.93;;
20792;SDS011;10556;-33.662;151.094;2023-05-07T00:35:18;6.63;;;3.30;;
20792;SDS011;10556;-33.662;151.094;2023-05-07T00:40:21;3.43;;;1.90;;
20792;SDS011;10556;-33.662;151.094;2023-05-07T00:45:23;7.00;;;3.83;;
20792;SDS011;10556;-33.662;151.094;2023-05-07T00:50:26;2.73;;;1.57;;
20792;SDS011;10556;-33.662;151.094;2023-05-07T00:55:30;21.00;;;10.07;;
20792;SDS011;10556;-33.662;151.094;2023-05-07T01:00:31;5.97;;;3.37;;
20792;SDS011;10556;-33.662;151.094;2023-05-07T01:05:33;7.17;;;4.53;;
20792;SDS011;10556;-33.662;151.094;2023-05-07T01:10:36;3.43;;;1.97;;
20792;SDS011;10556;-33.662;151.094;2023-05-07T01:15:37;3.73;;;1.77;;
20792;SDS011;10556;-33.662;151.094;2023-05-07T01:20:39;4.17;;;1.77;;
20792;SDS011;10556;-33.662;151.094;2023-05-07T01:25:42;3.47;;;1.97;;
20792;SDS011;10556;-33.662;151.094;2023-05-07T01:30:43;5.23;;;2.37;;
20792;SDS011;10556;-33.662;151.094;2023-05-07T01:35:46;2.53;;;1.60;;
20792;SDS011;10556;-33.662;151.094;2023-05-07T01:40:50;2.40;;;1.30;;
20792;SDS011;10556;-33.662;151.094;2023-05-07T01:45:51;3.93;;;1.20;;
20792;SDS011;10556;-33.662;151.094;2023-05-07T01:50:53;2.20;;;0.83;;
20792;SDS011;10556;-33.662;151.094;2023-05-07T01:55:56;2.30;;;1.10;;
20792;SDS011;10556;-33.662;151.094;2023-05-07T02:00:57;1.23;;;0.80;;
20792;SDS011;10556;-33.662;151.094;2023-05-07T02:05:59;0.80;;;0.60;;
20792;SDS011;10556;-33.662;151.094;2023-05-07T02:11:02;0.90;;;0.57;;
20792;SDS011;10556;-33.662;151.094;2023-05-07T02:16:03;0.77;;;0.50;;
20792;SDS011;10556;-33.662;151.094;2023-05-07T02:21:04;0.53;;;0.47;;
20792;SDS011;10556;-33.662;151.094;2023-05-07T02:26:07;0.80;;;0.50;;
20792;SDS011;10556;-33.662;151.094;2023-05-07T02:31:09;0.60;;;0.40;;
20792;SDS011;10556;-33.662;151.094;2023-05-07T02:36:10;0.97;;;0.50;;
20792;SDS011;10556;-33.662;151.094;2023-05-07T02:41:14;1.00;;;0.53;;
20792;SDS011;10556;-33.662;151.094;2023-05-07T02:46:15;0.90;;;0.40;;
20792;SDS011;10556;-33.662;151.094;2023-05-07T02:51:17;2.47;;;0.30;;
20792;SDS011;10556;-33.662;151.094;2023-05-07T02:56:20;1.33;;;0.60;;
20792;SDS011;10556;-33.662;151.094;2023-05-07T03:01:21;1.10;;;0.60;;
20792;SDS011;10556;-33.662;151.094;2023-05-07T03:06:23;0.87;;;0.67;;
20792;SDS011;10556;-33.662;151.094;2023-05-07T03:11:26;0.30;;;0.23;;
20792;SDS011;10556;-33.662;151.094;2023-05-07T03:16:27;0.53;;;0.23;;
20792;SDS011;10556;-33.662;151.094;2023-05-07T03:21:29;5.17;;;4.47;;
20792;SDS011;10556;-33.662;151.094;2023-05-07T03:26:32;7.40;;;5.80;;
20792;SDS011;10556;-33.662;151.094;2023-05-07T03:31:33;2.17;;;2.00;;
20792;SDS011;10556;-33.662;151.094;2023-05-07T03:36:35;2.07;;;1.00;;
20792;SDS011;10556;-33.662;151.094;2023-05-07T03:41:38;2.23;;;2.13;;
20792;SDS011;10556;-33.662;151.094;2023-05-07T03:46:40;3.27;;;0.87;;
20792;SDS011;10556;-33.662;151.094;2023-05-07T03:51:41;2.30;;;1.90;;
20792;SDS011;10556;-33.662;151.094;2023-05-07T03:56:44;1.90;;;1.70;;
20792;SDS011;10556;-33.662;151.094;2023-05-07T04:01:46;1.27;;;0.80;;
20792;SDS011;10556;-33.662;151.094;2023-05-07T04:06:47;1.13;;;0.90;;
20792;SDS011;10556;-33.662;151.094;2023-05-07T04:11:50;1.97;;;1.30;;
20792;SDS011;10556;-33.662;151.094;2023-05-07T04:16:52;1.70;;;0.60;;
20792;SDS011;10556;-33.662;151.094;2023-05-07T04:21:53;1.87;;;1.00;;
20792;SDS011;10556;-33.662;151.094;2023-05-07T04:26:56;0.97;;;0.83;;
20792;SDS011;10556;-33.662;151.094;2023-05-07T04:31:58;5.27;;;0.60;;
20792;SDS011;10556;-33.662;151.094;2023-05-07T04:36:59;0.77;;;0.40;;
20792;SDS011;10556;-33.662;151.094;2023-05-07T04:42:02;0.30;;;0.23;;
20792;SDS011;10556;-33.662;151.094;2023-05-07T04:47:04;0.70;;;0.40;;
20792;SDS011;10556;-33.662;151.094;2023-05-07T04:52:05;0.10;;;0.10;;
20792;SDS011;10556;-33.662;151.094;2023-05-07T04:57:08;0.20;;;0.20;;
20792;SDS011;10556;-33.662;151.094;2023-05-07T05:02:10;0.50;;;0.20;;
20792;SDS011;10556;-33.662;151.094;2023-05-07T05:07:11;0.33;;;0.10;;
20792;SDS011;10556;-33.662;151.094;2023-05-07T05:12:14;0.40;;;0.20;;
20792;SDS011;10556;-33.662;151.094;2023-05-07T05:17:16;0.50;;;0.20;;
20792;SDS011;10556;-33.662;151.094;2023-05-07T05:22:17;0.10;;;0.10;;
20792;SDS011;10556;-33.662;151.094;2023-05-07T05:27:20;0.67;;;0.10;;
20792;SDS011;10556;-33.662;151.094;2023-05-07T05:32:21;0.47;;;0.20;;
20792;SDS011;10556;-33.662;151.094;2023-05-07T05:37:23;1.63;;;1.00;;
20792;SDS011;10556;-33.662;151.094;2023-05-07T05:42:26;0.67;;;0.40;;
20792;SDS011;10556;-33.662;151.094;2023-05-07T05:47:28;0.50;;;0.30;;
20792;SDS011;10556;-33.662;151.094;2023-05-07T05:52:29;0.73;;;0.30;;
20792;SDS011;10556;-33.662;151.094;2023-05-07T05:57:32;2.80;;;0.27;;
20792;SDS011;10556;-33.662;151.094;2023-05-07T06:02:34;0.77;;;0.70;;
20792;SDS011;10556;-33.662;151.094;2023-05-07T06:07:35;0.70;;;0.70;;
20792;SDS011;10556;-33.662;151.094;2023-05-07T06:12:38;0.27;;;0.23;;
20792;SDS011;10556;-33.662;151.094;2023-05-07T06:17:40;0.70;;;0.60;;
20792;SDS011;10556;-33.662;151.094;2023-05-07T06:22:41;0.90;;;0.70;;
20792;SDS011;10556;-33.662;151.094;2023-05-07T06:27:44;0.47;;;0.40;;
20792;SDS011;10556;-33.662;151.094;2023-05-07T06:32:46;1.60;;;0.67;;
20792;SDS011;10556;-33.662;151.094;2023-05-07T06:37:47;2.63;;;0.90;;
20792;SDS011;10556;-33.662;151.094;2023-05-07T06:42:50;2.77;;;1.37;;
20792;SDS011;10556;-33.662;151.094;2023-05-07T06:47:51;1.00;;;0.70;;
20792;SDS011;10556;-33.662;151.094;2023-05-07T06:52:54;3.30;;;1.93;;
20792;SDS011;10556;-33.662;151.094;2023-05-07T06:57:57;0.83;;;0.50;;
20792;SDS011;10556;-33.662;151.094;2023-05-07T07:02:58;1.70;;;1.20;;
20792;SDS011;10556;-33.662;151.094;2023-05-07T07:08:00;0.80;;;0.63;;
20792;SDS011;10556;-33.662;151.094;2023-05-07T07:13:03;0.97;;;0.70;;
20792;SDS011;10556;-33.662;151.094;2023-05-07T07:18:04;1.10;;;0.60;;
20792;SDS011;10556;-33.662;151.094;2023-05-07T07:23:06;3.73;;;1.63;;
20792;SDS011;10556;-33.662;151.094;2023-05-07T07:28:09;1.37;;;0.80;;
20792;SDS011;10556;-33.662;151.094;2023-05-07T07:33:10;1.10;;;0.90;;
20792;SDS011;10556;-33.662;151.094;2023-05-07T07:38:12;2.13;;;1.07;;
20792;SDS011;10556;-33.662;151.094;2023-05-07T07:43:15;2.30;;;0.90;;
20792;SDS011;10556;-33.662;151.094;2023-05-07T07:48:16;0.70;;;0.50;;
20792;SDS011;10556;-33.662;151.094;2023-05-07T07:53:18;1.10;;;1.00;;
20792;SDS011;10556;-33.662;151.094;2023-05-07T07:58:21;1.07;;;0.80;;
20792;SDS011;10556;-33.662;151.094;2023-05-07T08:03:22;1.37;;;1.27;;
20792;SDS011;10556;-33.662;151.094;2023-05-07T08:08:24;1.17;;;0.80;;
20792;SDS011;10556;-33.662;151.094;2023-05-07T08:13:27;0.97;;;0.90;;
20792;SDS011;10556;-33.662;151.094;2023-05-07T08:18:28;1.00;;;0.90;;
20792;SDS011;10556;-33.662;151.094;2023-05-07T08:23:30;2.53;;;1.93;;
20792;SDS011;10556;-33.662;151.094;2023-05-07T08:28:34;4.37;;;3.43;;
20792;SDS011;10556;-33.662;151.094;2023-05-07T08:33:35;7.97;;;4.90;;
20792;SDS011;10556;-33.662;151.094;2023-05-07T08:38:36;3.50;;;2.03;;
20792;SDS011;10556;-33.662;151.094;2023-05-07T08:43:40;2.93;;;2.20;;
20792;SDS011;10556;-33.662;151.094;2023-05-07T08:48:42;4.73;;;3.27;;
20792;SDS011;10556;-33.662;151.094;2023-05-07T08:53:43;4.27;;;2.30;;
20792;SDS011;10556;-33.662;151.094;2023-05-07T08:58:47;10.20;;;5.17;;
20792;SDS011;10556;-33.662;151.094;2023-05-07T09:03:49;5.93;;;3.20;;
20792;SDS011;10556;-33.662;151.094;2023-05-07T09:08:50;2.70;;;1.80;;
20792;SDS011;10556;-33.662;151.094;2023-05-07T09:13:55;2.67;;;1.70;;
20792;SDS011;10556;-33.662;151.094;2023-05-07T09:18:58;7.93;;;6.45;;
20792;SDS011;10556;-33.662;151.094;2023-05-07T09:23:59;5.10;;;3.73;;
20792;SDS011;10556;-33.662;151.094;2023-05-07T09:29:02;2.63;;;1.90;;
20792;SDS011;10556;-33.662;151.094;2023-05-07T09:34:04;2.27;;;1.67;;
20792;SDS011;10556;-33.662;151.094;2023-05-07T09:39:05;1.80;;;1.47;;
20792;SDS011;10556;-33.662;151.094;2023-05-07T09:44:09;1.57;;;1.47;;
20792;SDS011;10556;-33.662;151.094;2023-05-07T09:49:11;2.00;;;1.80;;
20792;SDS011;10556;-33.662;151.094;2023-05-07T09:54:13;0.87;;;0.73;;
20792;SDS011;10556;-33.662;151.094;2023-05-07T09:59:16;1.17;;;1.07;;
20792;SDS011;10556;-33.662;151.094;2023-05-07T10:04:17;0.73;;;0.73;;
20792;SDS011;10556;-33.662;151.094;2023-05-07T10:09:19;0.80;;;0.80;;
20792;SDS011;10556;-33.662;151.094;2023-05-07T10:14:22;0.60;;;0.60;;
20792;SDS011;10556;-33.662;151.094;2023-05-07T10:19:24;0.70;;;0.70;;
20792;SDS011;10556;-33.662;151.094;2023-05-07T10:24:26;0.40;;;0.40;;
20792;SDS011;10556;-33.662;151.094;2023-05-07T10:29:32;0.20;;;0.20;;
20792;SDS011;10556;-33.662;151.094;2023-05-07T10:34:34;0.30;;;0.30;;
20792;SDS011;10556;-33.662;151.094;2023-05-07T10:39:37;1.33;;;0.40;;
20792;SDS011;10556;-33.662;151.094;2023-05-07T10:44:40;0.80;;;0.57;;
20792;SDS011;10556;-33.662;151.094;2023-05-07T10:55:19;0.70;;;0.60;;
20792;SDS011;10556;-33.662;151.094;2023-05-07T11:05:41;1.07;;;0.93;;
20792;SDS011;10556;-33.662;151.094;2023-05-07T11:10:50;1.60;;;1.50;;
20792;SDS011;10556;-33.662;151.094;2023-05-07T11:15:51;1.40;;;1.30;;
20792;SDS011;10556;-33.662;151.094;2023-05-07T11:20:58;0.50;;;0.50;;
20792;SDS011;10556;-33.662;151.094;2023-05-07T11:26:00;0.67;;;0.30;;
20792;SDS011;10556;-33.662;151.094;2023-05-07T11:31:01;0.10;;;0.10;;
20792;SDS011;10556;-33.662;151.094;2023-05-07T11:36:05;0.00;;;0.00;;
20792;SDS011;10556;-33.662;151.094;2023-05-07T11:41:08;0.10;;;0.10;;
20792;SDS011;10556;-33.662;151.094;2023-05-07T11:46:10;0.43;;;0.20;;
20792;SDS011;10556;-33.662;151.094;2023-05-07T11:51:13;0.03;;;0.00;;
20792;SDS011;10556;-33.662;151.094;2023-05-07T11:56:19;0.57;;;0.20;;
20792;SDS011;10556;-33.662;151.094;2023-05-07T12:01:20;0.17;;;0.17;;
20792;SDS011;10556;-33.662;151.094;2023-05-07T12:06:24;0.10;;;0.10;;
20792;SDS011;10556;-33.662;151.094;2023-05-07T12:11:25;0.00;;;0.00;;
20792;SDS011;10556;-33.662;151.094;2023-05-07T12:16:26;0.30;;;0.10;;
20792;SDS011;10556;-33.662;151.094;2023-05-07T12:21:30;0.00;;;0.00;;
20792;SDS011;10556;-33.662;151.094;2023-05-07T12:26:31;0.10;;;0.00;;
20792;SDS011;10556;-33.662;151.094;2023-05-07T12:31:33;0.30;;;0.10;;
20792;SDS011;10556;-33.662;151.094;2023-05-07T12:36:39;0.40;;;0.10;;
20792;SDS011;10556;-33.662;151.094;2023-05-07T12:41:53;0.00;;;0.00;;
20792;SDS011;10556;-33.662;151.094;2023-05-07T12:46:54;0.60;;;0.00;;
20792;SDS011;10556;-33.662;151.094;2023-05-07T12:51:58;8.40;;;4.07;;
20792;SDS011;10556;-33.662;151.094;2023-05-07T12:57:03;28.43;;;17.80;;
20792;SDS011;10556;-33.662;151.094;2023-05-07T13:02:05;35.27;;;19.27;;
20792;SDS011;10556;-33.662;151.094;2023-05-07T13:07:08;2.27;;;1.30;;
20792;SDS011;10556;-33.662;151.094;2023-05-07T13:12:09;3.77;;;3.47;;
20792;SDS011;10556;-33.662;151.094;2023-05-07T13:17:13;2.93;;;2.17;;
20792;SDS011;10556;-33.662;151.094;2023-05-07T13:22:16;9.03;;;5.70;;
20792;SDS011;10556;-33.662;151.094;2023-05-07T13:27:17;5.17;;;2.90;;
20792;SDS011;10556;-33.662;151.094;2023-05-07T13:32:19;1.93;;;1.00;;
20792;SDS011;10556;-33.662;151.094;2023-05-07T13:37:22;4.33;;;2.30;;
20792;SDS011;10556;-33.662;151.094;2023-05-07T13:42:23;3.83;;;1.37;;
20792;SDS011;10556;-33.662;151.094;2023-05-07T13:47:24;0.90;;;0.80;;
20792;SDS011;10556;-33.662;151.094;2023-05-07T13:52:27;0.80;;;0.73;;
20792;SDS011;10556;-33.662;151.094;2023-05-07T13:57:29;0.70;;;0.50;;
20792;SDS011;10556;-33.662;151.094;2023-05-07T14:02:30;1.73;;;1.33;;
20792;SDS011;10556;-33.662;151.094;2023-05-07T14:07:33;0.63;;;0.40;;
20792;SDS011;10556;-33.662;151.094;2023-05-07T14:12:35;0.20;;;0.13;;
20792;SDS011;10556;-33.662;151.094;2023-05-07T14:17:36;0.20;;;0.20;;
20792;SDS011;10556;-33.662;151.094;2023-05-07T14:22:39;1.50;;;1.33;;
20792;SDS011;10556;-33.662;151.094;2023-05-07T14:27:41;1.47;;;1.37;;
20792;SDS011;10556;-33.662;151.094;2023-05-07T14:32:42;1.27;;;0.80;;
20792;SDS011;10556;-33.662;151.094;2023-05-07T14:37:45;0.60;;;0.60;;
20792;SDS011;10556;-33.662;151.094;2023-05-07T14:42:46;0.30;;;0.30;;
20792;SDS011;10556;-33.662;151.094;2023-05-07T14:47:47;0.20;;;0.10;;
20792;SDS011;10556;-33.662;151.094;2023-05-07T14:52:51;0.93;;;0.20;;
20792;SDS011;10556;-33.662;151.094;2023-05-07T14:57:52;0.10;;;0.10;;
20792;SDS011;10556;-33.662;151.094;2023-05-07T15:02:53;1.57;;;0.10;;
20792;SDS011;10556;-33.662;151.094;2023-05-07T15:07:57;0.10;;;0.10;;
20792;SDS011;10556;-33.662;151.094;2023-05-07T15:12:58;0.20;;;0.17;;
20792;SDS011;10556;-33.662;151.094;2023-05-07T15:18:00;0.20;;;0.10;;
20792;SDS011;10556;-33.662;151.094;2023-05-07T15:23:03;2.47;;;0.30;;
20792;SDS011;10556;-33.662;151.094;2023-05-07T15:28:04;1.00;;;0.40;;
20792;SDS011;10556;-33.662;151.094;2023-05-07T15:33:05;0.27;;;0.20;;
20792;SDS011;10556;-33.662;151.094;2023-05-07T15:38:08;0.40;;;0.30;;
20792;SDS011;10556;-33.662;151.094;2023-05-07T15:43:10;0.30;;;0.27;;
20792;SDS011;10556;-33.662;151.094;2023-05-07T15:48:11;0.40;;;0.20;;
20792;SDS011;10556;-33.662;151.094;2023-05-07T15:53:14;0.50;;;0.50;;
20792;SDS011;10556;-33.662;151.094;2023-05-07T15:58:16;0.70;;;0.60;;
20792;SDS011;10556;-33.662;151.094;2023-05-07T16:03:17;0.40;;;0.40;;
20792;SDS011;10556;-33.662;151.094;2023-05-07T16:08:20;1.03;;;0.40;;
20792;SDS011;10556;-33.662;151.094;2023-05-07T16:13:21;1.23;;;0.90;;
20792;SDS011;10556;-33.662;151.094;2023-05-07T16:18:23;1.00;;;0.97;;
20792;SDS011;10556;-33.662;151.094;2023-05-07T16:23:26;4.70;;;3.27;;
20792;SDS011;10556;-33.662;151.094;2023-05-07T16:28:27;1.60;;;1.20;;
20792;SDS011;10556;-33.662;151.094;2023-05-07T16:33:28;1.13;;;0.77;;
20792;SDS011;10556;-33.662;151.094;2023-05-07T16:38:31;2.93;;;2.13;;
20792;SDS011;10556;-33.662;151.094;2023-05-07T16:43:33;4.07;;;2.43;;
20792;SDS011;10556;-33.662;151.094;2023-05-07T16:48:34;9.07;;;4.73;;
20792;SDS011;10556;-33.662;151.094;2023-05-07T16:53:37;12.97;;;6.37;;
20792;SDS011;10556;-33.662;151.094;2023-05-07T16:58:38;9.00;;;4.03;;
20792;SDS011;10556;-33.662;151.094;2023-05-07T17:03:40;8.57;;;4.43;;
20792;SDS011;10556;-33.662;151.094;2023-05-07T17:08:43;10.17;;;4.73;;
20792;SDS011;10556;-33.662;151.094;2023-05-07T17:13:44;8.60;;;4.33;;
20792;SDS011;10556;-33.662;151.094;2023-05-07T17:18:45;7.37;;;2.37;;
20792;SDS011;10556;-33.662;151.094;2023-05-07T17:23:48;2.17;;;1.20;;
20792;SDS011;10556;-33.662;151.094;2023-05-07T17:28:50;1.67;;;0.30;;
20792;SDS011;10556;-33.662;151.094;2023-05-07T17:33:51;2.03;;;0.40;;
20792;SDS011;10556;-33.662;151.094;2023-05-07T17:38:54;0.00;;;0.00;;
20792;SDS011;10556;-33.662;151.094;2023-05-07T17:43:55;2.27;;;0.30;;
20792;SDS011;10556;-33.662;151.094;2023-05-07T17:48:57;2.00;;;0.30;;
20792;SDS011;10556;-33.662;151.094;2023-05-07T17:54:00;1.10;;;0.10;;
20792;SDS011;10556;-33.662;151.094;2023-05-07T17:59:11;0.87;;;0.13;;
20792;SDS011;10556;-33.662;151.094;2023-05-07T18:04:13;0.70;;;0.30;;
20792;SDS011;10556;-33.662;151.094;2023-05-07T18:09:16;0.10;;;0.10;;
20792;SDS011;10556;-33.662;151.094;2023-05-07T18:14:17;0.03;;;0.03;;
20792;SDS011;10556;-33.662;151.094;2023-05-07T18:19:19;1.07;;;0.10;;
20792;SDS011;10556;-33.662;151.094;2023-05-07T18:24:22;1.10;;;0.10;;
20792;SDS011;10556;-33.662;151.094;2023-05-07T18:29:23;1.93;;;0.43;;
20792;SDS011;10556;-33.662;151.094;2023-05-07T18:34:24;0.23;;;0.10;;
20792;SDS011;10556;-33.662;151.094;2023-05-07T18:39:27;0.10;;;0.00;;
20792;SDS011;10556;-33.662;151.094;2023-05-07T18:44:29;1.20;;;0.03;;
20792;SDS011;10556;-33.662;151.094;2023-05-07T18:49:30;0.43;;;0.20;;
20792;SDS011;10556;-33.662;151.094;2023-05-07T18:54:36;0.10;;;0.10;;
20792;SDS011;10556;-33.662;151.094;2023-05-07T18:59:37;0.30;;;0.10;;
20792;SDS011;10556;-33.662;151.094;2023-05-07T19:04:38;0.00;;;0.00;;
20792;SDS011;10556;-33.662;151.094;2023-05-07T19:09:42;0.60;;;0.10;;
20792;SDS011;10556;-33.662;151.094;2023-05-07T19:14:43;0.10;;;0.00;;
20792;SDS011;10556;-33.662;151.094;2023-05-07T19:19:44;0.63;;;0.10;;
20792;SDS011;10556;-33.662;151.094;2023-05-07T19:24:50;0.27;;;0.10;;
20792;SDS011;10556;-33.662;151.094;2023-05-07T19:29:51;0.20;;;0.10;;
20792;SDS011;10556;-33.662;151.094;2023-05-07T19:34:52;0.00;;;0.00;;
20792;SDS011;10556;-33.662;151.094;2023-05-07T19:39:55;0.20;;;0.17;;
20792;SDS011;10556;-33.662;151.094;2023-05-07T19:44:56;0.83;;;0.10;;
20792;SDS011;10556;-33.662;151.094;2023-05-07T19:49:58;0.10;;;0.10;;
20792;SDS011;10556;-33.662;151.094;2023-05-07T19:55:01;0.33;;;0.30;;
20792;SDS011;10556;-33.662;151.094;2023-05-07T20:00:02;0.00;;;0.00;;
20792;SDS011;10556;-33.662;151.094;2023-05-07T20:05:04;0.10;;;0.10;;
20792;SDS011;10556;-33.662;151.094;2023-05-07T20:10:07;0.10;;;0.00;;
20792;SDS011;10556;-33.662;151.094;2023-05-07T20:15:09;0.37;;;0.10;;
20792;SDS011;10556;-33.662;151.094;2023-05-07T20:20:11;1.03;;;0.23;;
20792;SDS011;10556;-33.662;151.094;2023-05-07T20:25:14;0.10;;;0.00;;
20792;SDS011;10556;-33.662;151.094;2023-05-07T20:30:15;0.27;;;0.10;;
20792;SDS011;10556;-33.662;151.094;2023-05-07T20:35:16;1.53;;;0.10;;
20792;SDS011;10556;-33.662;151.094;2023-05-07T20:40:20;0.70;;;0.10;;
20792;SDS011;10556;-33.662;151.094;2023-05-07T20:45:21;0.10;;;0.00;;
20792;SDS011;10556;-33.662;151.094;2023-05-07T20:50:22;3.97;;;2.77;;
20792;SDS011;10556;-33.662;151.094;2023-05-07T20:55:26;4.93;;;3.23;;
20792;SDS011;10556;-33.662;151.094;2023-05-07T21:00:27;1.63;;;1.43;;
20792;SDS011;10556;-33.662;151.094;2023-05-07T21:05:28;1.70;;;0.80;;
20792;SDS011;10556;-33.662;151.094;2023-05-07T21:10:31;0.47;;;0.40;;
20792;SDS011;10556;-33.662;151.094;2023-05-07T21:15:33;0.93;;;0.20;;
20792;SDS011;10556;-33.662;151.094;2023-05-07T21:20:34;0.70;;;0.37;;
20792;SDS011;10556;-33.662;151.094;2023-05-07T21:25:38;1.43;;;0.53;;
20792;SDS011;10556;-33.662;151.094;2023-05-07T21:30:39;0.50;;;0.20;;
20792;SDS011;10556;-33.662;151.094;2023-05-07T21:35:40;0.20;;;0.20;;
20792;SDS011;10556;-33.662;151.094;2023-05-07T21:40:43;1.43;;;0.63;;
20792;SDS011;10556;-33.662;151.094;2023-05-07T21:45:45;38.47;;;20.57;;
20792;SDS011;10556;-33.662;151.094;2023-05-07T21:50:46;28.37;;;17.60;;
20792;SDS011;10556;-33.662;151.094;2023-05-07T21:55:49;10.20;;;6.17;;
20792;SDS011;10556;-33.662;151.094;2023-05-07T22:00:51;8.13;;;4.53;;
20792;SDS011;10556;-33.662;151.094;2023-05-07T22:05:53;7.57;;;3.47;;
20792;SDS011;10556;-33.662;151.094;2023-05-07T22:10:56;10.33;;;5.23;;
20792;SDS011;10556;-33.662;151.094;2023-05-07T22:15:57;2.20;;;1.40;;
20792;SDS011;10556;-33.662;151.094;2023-05-07T22:20:59;0.90;;;0.77;;
20792;SDS011;10556;-33.662;151.094;2023-05-07T22:26:07;1.93;;;1.27;;
20792;SDS011;10556;-33.662;151.094;2023-05-07T22:31:09;1.87;;;0.80;;
20792;SDS011;10556;-33.662;151.094;2023-05-07T22:36:10;0.50;;;0.50;;
20792;SDS011;10556;-33.662;151.094;2023-05-07T22:41:13;0.30;;;0.10;;
20792;SDS011;10556;-33.662;151.094;2023-05-07T22:46:15;1.33;;;0.10;;
20792;SDS011;10556;-33.662;151.094;2023-05-07T22:51:16;0.47;;;0.10;;
20792;SDS011;10556;-33.662;151.094;2023-05-07T22:56:19;0.63;;;0.10;;
20792;SDS011;10556;-33.662;151.094;2023-05-07T23:01:20;0.33;;;0.07;;
20792;SDS011;10556;-33.662;151.094;2023-05-07T23:06:21;0.50;;;0.20;;
20792;SDS011;10556;-33.662;151.094;2023-05-07T23:11:24;0.30;;;0.10;;
20792;SDS011;10556;-33.662;151.094;2023-05-07T23:16:26;0.30;;;0.17;;
20792;SDS011;10556;-33.662;151.094;2023-05-07T23:21:27;0.80;;;0.10;;
20792;SDS011;10556;-33.662;151.094;2023-05-07T23:26:30;0.33;;;0.10;;
20792;SDS011;10556;-33.662;151.094;2023-05-07T23:31:31;1.07;;;0.30;;
20792;SDS011;10556;-33.662;151.094;2023-05-07T23:36:33;0.40;;;0.37;;
20792;SDS011;10556;-33.662;151.094;2023-05-07T23:41:36;1.00;;;0.20;;
20792;SDS011;10556;-33.662;151.094;2023-05-07T23:46:37;0.53;;;0.30;;
20792;SDS011;10556;-33.662;151.094;2023-05-07T23:51:38;0.67;;;0.20;;
20792;SDS011;10556;-33.662;151.094;2023-05-07T23:56:41;0.37;;;0.30;;
